sensor_id;sensor_type;location;lat;lon;timestamp;P1;durP1;ratioP1;P2;durP2;ratioP2
5507;SDS011;2776;51.046;6.772;2024-01-11T00:01:55;3.27;;;2.97;;
5507;SDS011;2776;51.046;6.772;2024-01-11T00:04:23;1.80;;;1.70;;
5507;SDS011;2776;51.046;6.772;2024-01-11T00:06:50;5.30;;;3.37;;
5507;SDS011;2776;51.046;6.772;2024-01-11T00:09:17;2.57;;;2.10;;
5507;SDS011;2776;51.046;6.772;2024-01-11T00:11:44;2.03;;;1.63;;
5507;SDS011;2776;51.046;6.772;2024-01-11T00:14:10;6.37;;;2.27;;
5507;SDS011;2776;51.046;6.772;2024-01-11T00:16:37;2.90;;;2.67;;
5507;SDS011;2776;51.046;6.772;2024-01-11T00:19:04;4.23;;;3.60;;
5507;SDS011;2776;51.046;6.772;2024-01-11T00:21:32;3.67;;;1.77;;
5507;SDS011;2776;51.046;6.772;2024-01-11T00:23:58;4.57;;;2.63;;
5507;SDS011;2776;51.046;6.772;2024-01-11T00:26:25;3.07;;;2.57;;
5507;SDS011;2776;51.046;6.772;2024-01-11T00:28:52;3.03;;;1.87;;
5507;SDS011;2776;51.046;6.772;2024-01-11T00:31:18;4.17;;;3.53;;
5507;SDS011;2776;51.046;6.772;2024-01-11T00:33:45;3.23;;;2.93;;
5507;SDS011;2776;51.046;6.772;2024-01-11T00:36:16;3.13;;;2.40;;
5507;SDS011;2776;51.046;6.772;2024-01-11T00:38:45;2.40;;;2.23;;
5507;SDS011;2776;51.046;6.772;2024-01-11T00:41:12;3.07;;;2.67;;
5507;SDS011;2776;51.046;6.772;2024-01-11T00:43:38;2.83;;;2.00;;
5507;SDS011;2776;51.046;6.772;2024-01-11T00:46:05;15.13;;;3.10;;
5507;SDS011;2776;51.046;6.772;2024-01-11T00:48:32;3.50;;;2.00;;
5507;SDS011;2776;51.046;6.772;2024-01-11T00:50:59;4.60;;;3.13;;
5507;SDS011;2776;51.046;6.772;2024-01-11T00:53:25;3.70;;;2.70;;
5507;SDS011;2776;51.046;6.772;2024-01-11T00:55:56;5.43;;;3.50;;
5507;SDS011;2776;51.046;6.772;2024-01-11T00:58:23;4.90;;;1.97;;
5507;SDS011;2776;51.046;6.772;2024-01-11T01:00:50;3.53;;;2.63;;
5507;SDS011;2776;51.046;6.772;2024-01-11T01:03:17;4.00;;;2.77;;
5507;SDS011;2776;51.046;6.772;2024-01-11T01:05:44;1.60;;;1.50;;
5507;SDS011;2776;51.046;6.772;2024-01-11T01:08:11;3.23;;;2.33;;
5507;SDS011;2776;51.046;6.772;2024-01-11T01:10:37;2.07;;;1.87;;
5507;SDS011;2776;51.046;6.772;2024-01-11T01:13:06;5.43;;;3.73;;
5507;SDS011;2776;51.046;6.772;2024-01-11T01:15:32;33.93;;;1.80;;
5507;SDS011;2776;51.046;6.772;2024-01-11T01:17:59;2.90;;;1.80;;
5507;SDS011;2776;51.046;6.772;2024-01-11T01:20:26;2.10;;;1.80;;
5507;SDS011;2776;51.046;6.772;2024-01-11T01:22:52;5.53;;;2.73;;
5507;SDS011;2776;51.046;6.772;2024-01-11T01:25:19;2.93;;;2.53;;
5507;SDS011;2776;51.046;6.772;2024-01-11T01:27:46;5.23;;;1.87;;
5507;SDS011;2776;51.046;6.772;2024-01-11T01:30:14;5.00;;;2.63;;
5507;SDS011;2776;51.046;6.772;2024-01-11T01:32:41;9.13;;;2.57;;
5507;SDS011;2776;51.046;6.772;2024-01-11T01:35:08;4.77;;;3.43;;
5507;SDS011;2776;51.046;6.772;2024-01-11T01:37:34;2.60;;;2.40;;
5507;SDS011;2776;51.046;6.772;2024-01-11T01:40:01;3.70;;;3.40;;
5507;SDS011;2776;51.046;6.772;2024-01-11T01:42:28;3.20;;;2.90;;
5507;SDS011;2776;51.046;6.772;2024-01-11T01:44:55;4.10;;;3.13;;
5507;SDS011;2776;51.046;6.772;2024-01-11T01:47:23;3.60;;;2.93;;
5507;SDS011;2776;51.046;6.772;2024-01-11T01:49:50;3.33;;;2.50;;
5507;SDS011;2776;51.046;6.772;2024-01-11T01:52:17;7.73;;;3.97;;
5507;SDS011;2776;51.046;6.772;2024-01-11T01:54:45;1.63;;;1.53;;
5507;SDS011;2776;51.046;6.772;2024-01-11T01:57:13;3.57;;;2.67;;
5507;SDS011;2776;51.046;6.772;2024-01-11T01:59:40;2.77;;;2.07;;
5507;SDS011;2776;51.046;6.772;2024-01-11T02:02:10;2.50;;;2.03;;
5507;SDS011;2776;51.046;6.772;2024-01-11T02:04:39;2.57;;;2.10;;
5507;SDS011;2776;51.046;6.772;2024-01-11T02:07:06;3.57;;;3.27;;
5507;SDS011;2776;51.046;6.772;2024-01-11T02:09:33;7.43;;;2.80;;
5507;SDS011;2776;51.046;6.772;2024-01-11T02:12:00;7.03;;;2.93;;
5507;SDS011;2776;51.046;6.772;2024-01-11T02:14:28;5.90;;;2.30;;
5507;SDS011;2776;51.046;6.772;2024-01-11T02:16:55;2.00;;;1.80;;
5507;SDS011;2776;51.046;6.772;2024-01-11T02:19:22;9.73;;;3.13;;
5507;SDS011;2776;51.046;6.772;2024-01-11T02:21:51;3.27;;;3.07;;
5507;SDS011;2776;51.046;6.772;2024-01-11T02:24:21;2.53;;;2.33;;
5507;SDS011;2776;51.046;6.772;2024-01-11T02:26:57;3.00;;;2.67;;
5507;SDS011;2776;51.046;6.772;2024-01-11T02:29:25;3.67;;;2.50;;
5507;SDS011;2776;51.046;6.772;2024-01-11T02:31:52;1.97;;;1.87;;
5507;SDS011;2776;51.046;6.772;2024-01-11T02:34:20;1.97;;;1.87;;
5507;SDS011;2776;51.046;6.772;2024-01-11T02:36:47;3.57;;;3.20;;
5507;SDS011;2776;51.046;6.772;2024-01-11T02:39:14;2.37;;;2.23;;
5507;SDS011;2776;51.046;6.772;2024-01-11T02:41:44;4.43;;;2.97;;
5507;SDS011;2776;51.046;6.772;2024-01-11T02:44:11;4.23;;;3.83;;
5507;SDS011;2776;51.046;6.772;2024-01-11T02:46:38;3.33;;;1.83;;
5507;SDS011;2776;51.046;6.772;2024-01-11T02:49:04;3.33;;;3.03;;
5507;SDS011;2776;51.046;6.772;2024-01-11T02:51:31;8.77;;;3.60;;
5507;SDS011;2776;51.046;6.772;2024-01-11T02:53:58;3.90;;;2.87;;
5507;SDS011;2776;51.046;6.772;2024-01-11T02:56:25;2.47;;;2.27;;
5507;SDS011;2776;51.046;6.772;2024-01-11T02:58:53;4.33;;;2.97;;
5507;SDS011;2776;51.046;6.772;2024-01-11T03:01:20;5.03;;;4.63;;
5507;SDS011;2776;51.046;6.772;2024-01-11T03:03:46;6.60;;;3.07;;
5507;SDS011;2776;51.046;6.772;2024-01-11T03:06:13;2.20;;;2.00;;
5507;SDS011;2776;51.046;6.772;2024-01-11T03:08:40;5.97;;;2.00;;
5507;SDS011;2776;51.046;6.772;2024-01-11T03:11:06;2.73;;;2.03;;
5507;SDS011;2776;51.046;6.772;2024-01-11T03:13:33;5.13;;;3.27;;
5507;SDS011;2776;51.046;6.772;2024-01-11T03:16:01;3.23;;;2.77;;
5507;SDS011;2776;51.046;6.772;2024-01-11T03:18:28;2.77;;;2.43;;
5507;SDS011;2776;51.046;6.772;2024-01-11T03:20:56;4.80;;;2.57;;
5507;SDS011;2776;51.046;6.772;2024-01-11T03:23:22;6.27;;;3.77;;
5507;SDS011;2776;51.046;6.772;2024-01-11T03:25:49;2.63;;;2.33;;
5507;SDS011;2776;51.046;6.772;2024-01-11T03:28:16;2.97;;;1.97;;
5507;SDS011;2776;51.046;6.772;2024-01-11T03:30:42;4.40;;;3.63;;
5507;SDS011;2776;51.046;6.772;2024-01-11T03:33:11;11.80;;;4.90;;
5507;SDS011;2776;51.046;6.772;2024-01-11T03:35:37;4.30;;;3.13;;
5507;SDS011;2776;51.046;6.772;2024-01-11T03:38:05;3.20;;;2.60;;
5507;SDS011;2776;51.046;6.772;2024-01-11T03:40:32;5.07;;;2.70;;
5507;SDS011;2776;51.046;6.772;2024-01-11T03:42:58;2.90;;;2.70;;
5507;SDS011;2776;51.046;6.772;2024-01-11T03:45:25;9.47;;;3.40;;
5507;SDS011;2776;51.046;6.772;2024-01-11T03:47:52;3.43;;;2.77;;
5507;SDS011;2776;51.046;6.772;2024-01-11T03:50:20;5.43;;;4.00;;
5507;SDS011;2776;51.046;6.772;2024-01-11T03:52:47;7.10;;;4.13;;
5507;SDS011;2776;51.046;6.772;2024-01-11T03:55:14;4.20;;;2.30;;
5507;SDS011;2776;51.046;6.772;2024-01-11T03:57:40;3.37;;;3.00;;
5507;SDS011;2776;51.046;6.772;2024-01-11T04:00:07;5.63;;;3.10;;
5507;SDS011;2776;51.046;6.772;2024-01-11T04:02:35;5.07;;;3.90;;
5507;SDS011;2776;51.046;6.772;2024-01-11T04:05:02;2.63;;;2.43;;
5507;SDS011;2776;51.046;6.772;2024-01-11T04:07:30;3.20;;;3.00;;
5507;SDS011;2776;51.046;6.772;2024-01-11T04:09:57;3.70;;;3.40;;
5507;SDS011;2776;51.046;6.772;2024-01-11T04:12:24;10.83;;;3.37;;
5507;SDS011;2776;51.046;6.772;2024-01-11T04:14:50;3.40;;;3.10;;
5507;SDS011;2776;51.046;6.772;2024-01-11T04:17:17;7.00;;;3.03;;
5507;SDS011;2776;51.046;6.772;2024-01-11T04:19:44;3.63;;;3.20;;
5507;SDS011;2776;51.046;6.772;2024-01-11T04:22:10;7.63;;;3.60;;
5507;SDS011;2776;51.046;6.772;2024-01-11T04:24:38;5.27;;;4.20;;
5507;SDS011;2776;51.046;6.772;2024-01-11T04:27:07;3.23;;;1.80;;
5507;SDS011;2776;51.046;6.772;2024-01-11T04:29:34;4.50;;;3.63;;
5507;SDS011;2776;51.046;6.772;2024-01-11T04:32:01;8.27;;;3.33;;
5507;SDS011;2776;51.046;6.772;2024-01-11T04:34:28;3.40;;;3.03;;
5507;SDS011;2776;51.046;6.772;2024-01-11T04:36:54;3.63;;;3.30;;
5507;SDS011;2776;51.046;6.772;2024-01-11T04:39:21;3.97;;;3.37;;
5507;SDS011;2776;51.046;6.772;2024-01-11T04:41:49;7.27;;;5.13;;
5507;SDS011;2776;51.046;6.772;2024-01-11T04:44:16;9.73;;;3.97;;
5507;SDS011;2776;51.046;6.772;2024-01-11T04:46:43;6.10;;;3.63;;
5507;SDS011;2776;51.046;6.772;2024-01-11T04:49:09;4.13;;;2.97;;
5507;SDS011;2776;51.046;6.772;2024-01-11T04:51:36;3.53;;;2.70;;
5507;SDS011;2776;51.046;6.772;2024-01-11T04:54:03;13.53;;;3.07;;
5507;SDS011;2776;51.046;6.772;2024-01-11T04:56:29;2.83;;;2.63;;
5507;SDS011;2776;51.046;6.772;2024-01-11T04:58:57;3.03;;;2.70;;
5507;SDS011;2776;51.046;6.772;2024-01-11T05:01:24;6.50;;;4.47;;
5507;SDS011;2776;51.046;6.772;2024-01-11T05:03:51;6.03;;;2.27;;
5507;SDS011;2776;51.046;6.772;2024-01-11T05:06:19;4.27;;;3.50;;
5507;SDS011;2776;51.046;6.772;2024-01-11T05:08:48;6.03;;;4.07;;
5507;SDS011;2776;51.046;6.772;2024-01-11T05:11:16;15.83;;;3.23;;
5507;SDS011;2776;51.046;6.772;2024-01-11T05:13:43;4.33;;;3.00;;
5507;SDS011;2776;51.046;6.772;2024-01-11T05:16:18;4.53;;;4.13;;
5507;SDS011;2776;51.046;6.772;2024-01-11T05:18:45;5.73;;;3.43;;
5507;SDS011;2776;51.046;6.772;2024-01-11T05:21:12;4.53;;;4.23;;
5507;SDS011;2776;51.046;6.772;2024-01-11T05:23:39;5.93;;;4.13;;
5507;SDS011;2776;51.046;6.772;2024-01-11T05:26:06;3.53;;;3.23;;
5507;SDS011;2776;51.046;6.772;2024-01-11T05:28:33;3.13;;;2.70;;
5507;SDS011;2776;51.046;6.772;2024-01-11T05:31:00;3.17;;;2.40;;
5507;SDS011;2776;51.046;6.772;2024-01-11T05:33:28;3.17;;;2.40;;
5507;SDS011;2776;51.046;6.772;2024-01-11T05:35:56;2.33;;;2.13;;
5507;SDS011;2776;51.046;6.772;2024-01-11T05:38:22;5.00;;;2.77;;
5507;SDS011;2776;51.046;6.772;2024-01-11T05:40:49;6.30;;;5.53;;
5507;SDS011;2776;51.046;6.772;2024-01-11T05:43:15;5.60;;;3.40;;
5507;SDS011;2776;51.046;6.772;2024-01-11T05:45:42;3.70;;;2.87;;
5507;SDS011;2776;51.046;6.772;2024-01-11T05:48:09;2.60;;;2.40;;
5507;SDS011;2776;51.046;6.772;2024-01-11T05:50:38;3.17;;;2.60;;
5507;SDS011;2776;51.046;6.772;2024-01-11T05:53:05;5.37;;;2.97;;
5507;SDS011;2776;51.046;6.772;2024-01-11T05:55:31;7.53;;;2.90;;
5507;SDS011;2776;51.046;6.772;2024-01-11T05:57:58;3.50;;;3.20;;
5507;SDS011;2776;51.046;6.772;2024-01-11T06:00:25;5.20;;;1.93;;
5507;SDS011;2776;51.046;6.772;2024-01-11T06:02:51;6.53;;;4.67;;
5507;SDS011;2776;51.046;6.772;2024-01-11T06:05:18;3.20;;;2.90;;
5507;SDS011;2776;51.046;6.772;2024-01-11T06:07:46;7.60;;;4.63;;
5507;SDS011;2776;51.046;6.772;2024-01-11T06:10:13;7.17;;;2.23;;
5507;SDS011;2776;51.046;6.772;2024-01-11T06:12:40;2.43;;;2.23;;
5507;SDS011;2776;51.046;6.772;2024-01-11T06:15:07;1.73;;;1.57;;
5507;SDS011;2776;51.046;6.772;2024-01-11T06:17:34;7.63;;;4.00;;
5507;SDS011;2776;51.046;6.772;2024-01-11T06:20:01;11.53;;;5.10;;
5507;SDS011;2776;51.046;6.772;2024-01-11T06:22:28;3.77;;;3.57;;
5507;SDS011;2776;51.046;6.772;2024-01-11T06:24:56;3.80;;;2.63;;
5507;SDS011;2776;51.046;6.772;2024-01-11T06:27:24;4.47;;;3.67;;
5507;SDS011;2776;51.046;6.772;2024-01-11T06:29:51;8.37;;;5.10;;
5507;SDS011;2776;51.046;6.772;2024-01-11T06:32:18;6.23;;;4.07;;
5507;SDS011;2776;51.046;6.772;2024-01-11T06:34:45;5.23;;;3.33;;
5507;SDS011;2776;51.046;6.772;2024-01-11T06:37:12;5.53;;;4.33;;
5507;SDS011;2776;51.046;6.772;2024-01-11T06:39:39;4.07;;;3.67;;
5507;SDS011;2776;51.046;6.772;2024-01-11T06:42:07;7.83;;;3.90;;
5507;SDS011;2776;51.046;6.772;2024-01-11T06:44:34;7.03;;;3.93;;
5507;SDS011;2776;51.046;6.772;2024-01-11T06:47:00;3.23;;;2.83;;
5507;SDS011;2776;51.046;6.772;2024-01-11T06:49:29;5.93;;;4.13;;
5507;SDS011;2776;51.046;6.772;2024-01-11T06:51:55;5.90;;;2.90;;
5507;SDS011;2776;51.046;6.772;2024-01-11T06:54:22;6.07;;;3.17;;
5507;SDS011;2776;51.046;6.772;2024-01-11T06:56:49;5.93;;;4.60;;
5507;SDS011;2776;51.046;6.772;2024-01-11T06:59:17;7.80;;;3.90;;
5507;SDS011;2776;51.046;6.772;2024-01-11T07:01:43;3.63;;;2.93;;
5507;SDS011;2776;51.046;6.772;2024-01-11T07:04:10;5.13;;;3.00;;
5507;SDS011;2776;51.046;6.772;2024-01-11T07:06:37;3.20;;;2.90;;
5507;SDS011;2776;51.046;6.772;2024-01-11T07:09:04;2.83;;;2.67;;
5507;SDS011;2776;51.046;6.772;2024-01-11T07:11:31;5.37;;;4.33;;
5507;SDS011;2776;51.046;6.772;2024-01-11T07:13:58;3.40;;;3.13;;
5507;SDS011;2776;51.046;6.772;2024-01-11T07:16:26;4.87;;;4.23;;
5507;SDS011;2776;51.046;6.772;2024-01-11T07:18:52;7.17;;;3.40;;
5507;SDS011;2776;51.046;6.772;2024-01-11T07:21:22;2.63;;;2.10;;
5507;SDS011;2776;51.046;6.772;2024-01-11T07:23:54;3.60;;;3.30;;
5507;SDS011;2776;51.046;6.772;2024-01-11T07:26:21;9.07;;;3.67;;
5507;SDS011;2776;51.046;6.772;2024-01-11T07:28:49;9.97;;;6.07;;
5507;SDS011;2776;51.046;6.772;2024-01-11T07:31:16;4.23;;;1.60;;
5507;SDS011;2776;51.046;6.772;2024-01-11T07:33:44;12.60;;;3.10;;
5507;SDS011;2776;51.046;6.772;2024-01-11T07:36:11;7.43;;;5.63;;
5507;SDS011;2776;51.046;6.772;2024-01-11T07:38:37;4.63;;;3.77;;
5507;SDS011;2776;51.046;6.772;2024-01-11T07:41:04;4.80;;;4.17;;
5507;SDS011;2776;51.046;6.772;2024-01-11T07:43:31;5.50;;;4.80;;
5507;SDS011;2776;51.046;6.772;2024-01-11T07:46:00;10.90;;;5.73;;
5507;SDS011;2776;51.046;6.772;2024-01-11T07:48:28;6.37;;;4.53;;
5507;SDS011;2776;51.046;6.772;2024-01-11T07:50:57;7.87;;;5.20;;
5507;SDS011;2776;51.046;6.772;2024-01-11T07:53:24;3.07;;;2.87;;
5507;SDS011;2776;51.046;6.772;2024-01-11T07:55:50;7.77;;;4.93;;
5507;SDS011;2776;51.046;6.772;2024-01-11T07:58:17;3.43;;;3.20;;
5507;SDS011;2776;51.046;6.772;2024-01-11T08:00:45;8.50;;;4.50;;
5507;SDS011;2776;51.046;6.772;2024-01-11T08:03:13;6.13;;;3.23;;
5507;SDS011;2776;51.046;6.772;2024-01-11T08:05:39;11.25;;;6.07;;
5507;SDS011;2776;51.046;6.772;2024-01-11T08:08:09;7.97;;;4.70;;
5507;SDS011;2776;51.046;6.772;2024-01-11T08:10:35;11.63;;;3.70;;
5507;SDS011;2776;51.046;6.772;2024-01-11T08:13:02;6.07;;;3.63;;
5507;SDS011;2776;51.046;6.772;2024-01-11T08:15:28;25.67;;;5.73;;
5507;SDS011;2776;51.046;6.772;2024-01-11T08:17:55;7.53;;;3.87;;
5507;SDS011;2776;51.046;6.772;2024-01-11T08:20:22;3.20;;;2.97;;
5507;SDS011;2776;51.046;6.772;2024-01-11T08:22:49;9.10;;;4.30;;
5507;SDS011;2776;51.046;6.772;2024-01-11T08:25:17;5.83;;;3.50;;
5507;SDS011;2776;51.046;6.772;2024-01-11T08:27:43;10.30;;;6.43;;
5507;SDS011;2776;51.046;6.772;2024-01-11T08:30:11;10.50;;;7.30;;
5507;SDS011;2776;51.046;6.772;2024-01-11T08:32:38;11.97;;;5.67;;
5507;SDS011;2776;51.046;6.772;2024-01-11T08:35:07;13.73;;;6.10;;
5507;SDS011;2776;51.046;6.772;2024-01-11T08:37:35;10.83;;;6.13;;
5507;SDS011;2776;51.046;6.772;2024-01-11T08:40:01;8.70;;;4.97;;
5507;SDS011;2776;51.046;6.772;2024-01-11T08:42:31;7.03;;;4.23;;
5507;SDS011;2776;51.046;6.772;2024-01-11T08:44:58;7.63;;;5.70;;
5507;SDS011;2776;51.046;6.772;2024-01-11T08:47:28;13.67;;;7.03;;
5507;SDS011;2776;51.046;6.772;2024-01-11T08:49:56;10.23;;;5.63;;
5507;SDS011;2776;51.046;6.772;2024-01-11T08:52:22;13.93;;;7.67;;
5507;SDS011;2776;51.046;6.772;2024-01-11T08:54:49;14.10;;;7.63;;
5507;SDS011;2776;51.046;6.772;2024-01-11T08:57:16;9.50;;;6.63;;
5507;SDS011;2776;51.046;6.772;2024-01-11T08:59:44;16.53;;;8.90;;
5507;SDS011;2776;51.046;6.772;2024-01-11T09:02:11;16.00;;;10.00;;
5507;SDS011;2776;51.046;6.772;2024-01-11T09:04:37;21.93;;;9.30;;
5507;SDS011;2776;51.046;6.772;2024-01-11T09:07:04;15.90;;;9.93;;
5507;SDS011;2776;51.046;6.772;2024-01-11T09:09:31;19.00;;;10.53;;
5507;SDS011;2776;51.046;6.772;2024-01-11T09:11:57;22.70;;;10.70;;
5507;SDS011;2776;51.046;6.772;2024-01-11T09:14:24;21.80;;;10.23;;
5507;SDS011;2776;51.046;6.772;2024-01-11T09:16:52;19.17;;;10.57;;
5507;SDS011;2776;51.046;6.772;2024-01-11T09:19:20;19.60;;;10.63;;
5507;SDS011;2776;51.046;6.772;2024-01-11T09:21:46;16.10;;;9.57;;
5507;SDS011;2776;51.046;6.772;2024-01-11T09:24:13;19.73;;;9.13;;
5507;SDS011;2776;51.046;6.772;2024-01-11T09:26:40;14.70;;;8.30;;
5507;SDS011;2776;51.046;6.772;2024-01-11T09:29:06;15.47;;;9.13;;
5507;SDS011;2776;51.046;6.772;2024-01-11T09:31:33;13.77;;;9.87;;
5507;SDS011;2776;51.046;6.772;2024-01-11T09:34:01;21.93;;;10.57;;
5507;SDS011;2776;51.046;6.772;2024-01-11T09:36:28;16.93;;;8.40;;
5507;SDS011;2776;51.046;6.772;2024-01-11T09:38:55;18.63;;;10.70;;
5507;SDS011;2776;51.046;6.772;2024-01-11T09:41:22;25.00;;;12.00;;
5507;SDS011;2776;51.046;6.772;2024-01-11T09:43:49;20.70;;;9.87;;
5507;SDS011;2776;51.046;6.772;2024-01-11T09:46:20;14.53;;;9.23;;
5507;SDS011;2776;51.046;6.772;2024-01-11T09:48:47;23.17;;;10.87;;
5507;SDS011;2776;51.046;6.772;2024-01-11T09:51:17;15.53;;;9.30;;
5507;SDS011;2776;51.046;6.772;2024-01-11T09:53:44;20.00;;;10.33;;
5507;SDS011;2776;51.046;6.772;2024-01-11T09:56:11;26.07;;;10.33;;
5507;SDS011;2776;51.046;6.772;2024-01-11T09:58:38;19.13;;;10.57;;
5507;SDS011;2776;51.046;6.772;2024-01-11T10:01:10;15.90;;;9.00;;
5507;SDS011;2776;51.046;6.772;2024-01-11T10:03:38;19.67;;;9.90;;
5507;SDS011;2776;51.046;6.772;2024-01-11T10:06:06;22.07;;;11.07;;
5507;SDS011;2776;51.046;6.772;2024-01-11T10:08:36;15.97;;;9.37;;
5507;SDS011;2776;51.046;6.772;2024-01-11T10:11:03;16.60;;;9.27;;
5507;SDS011;2776;51.046;6.772;2024-01-11T10:13:30;13.20;;;8.73;;
5507;SDS011;2776;51.046;6.772;2024-01-11T10:16:07;19.57;;;9.23;;
5507;SDS011;2776;51.046;6.772;2024-01-11T10:18:38;13.00;;;8.23;;
5507;SDS011;2776;51.046;6.772;2024-01-11T10:21:05;20.00;;;8.83;;
5507;SDS011;2776;51.046;6.772;2024-01-11T10:23:32;16.07;;;9.83;;
5507;SDS011;2776;51.046;6.772;2024-01-11T10:26:01;11.20;;;8.13;;
5507;SDS011;2776;51.046;6.772;2024-01-11T10:28:28;12.87;;;8.83;;
5507;SDS011;2776;51.046;6.772;2024-01-11T10:30:55;15.67;;;10.33;;
5507;SDS011;2776;51.046;6.772;2024-01-11T10:33:22;14.60;;;9.47;;
5507;SDS011;2776;51.046;6.772;2024-01-11T10:35:49;16.60;;;7.67;;
5507;SDS011;2776;51.046;6.772;2024-01-11T10:38:16;20.30;;;10.00;;
5507;SDS011;2776;51.046;6.772;2024-01-11T10:40:43;16.43;;;8.73;;
5507;SDS011;2776;51.046;6.772;2024-01-11T10:43:13;18.73;;;8.63;;
5507;SDS011;2776;51.046;6.772;2024-01-11T10:45:43;15.43;;;8.30;;
5507;SDS011;2776;51.046;6.772;2024-01-11T10:48:13;19.40;;;9.67;;
5507;SDS011;2776;51.046;6.772;2024-01-11T10:50:41;14.83;;;9.23;;
5507;SDS011;2776;51.046;6.772;2024-01-11T10:53:12;16.90;;;9.03;;
5507;SDS011;2776;51.046;6.772;2024-01-11T10:55:47;21.70;;;9.07;;
5507;SDS011;2776;51.046;6.772;2024-01-11T10:58:17;13.77;;;8.47;;
5507;SDS011;2776;51.046;6.772;2024-01-11T11:00:44;17.60;;;8.33;;
5507;SDS011;2776;51.046;6.772;2024-01-11T11:03:12;16.67;;;8.73;;
5507;SDS011;2776;51.046;6.772;2024-01-11T11:05:40;17.23;;;8.80;;
5507;SDS011;2776;51.046;6.772;2024-01-11T11:08:08;12.37;;;9.00;;
5507;SDS011;2776;51.046;6.772;2024-01-11T11:10:37;15.30;;;8.80;;
5507;SDS011;2776;51.046;6.772;2024-01-11T11:13:06;10.97;;;7.27;;
5507;SDS011;2776;51.046;6.772;2024-01-11T11:15:37;12.80;;;8.47;;
5507;SDS011;2776;51.046;6.772;2024-01-11T11:18:05;17.13;;;7.63;;
5507;SDS011;2776;51.046;6.772;2024-01-11T11:20:32;16.53;;;8.77;;
5507;SDS011;2776;51.046;6.772;2024-01-11T11:23:05;17.57;;;9.97;;
5507;SDS011;2776;51.046;6.772;2024-01-11T11:25:32;16.47;;;9.93;;
5507;SDS011;2776;51.046;6.772;2024-01-11T11:28:00;16.33;;;9.27;;
5507;SDS011;2776;51.046;6.772;2024-01-11T11:30:29;11.90;;;8.57;;
5507;SDS011;2776;51.046;6.772;2024-01-11T11:32:57;13.87;;;10.17;;
5507;SDS011;2776;51.046;6.772;2024-01-11T11:35:25;22.63;;;9.87;;
5507;SDS011;2776;51.046;6.772;2024-01-11T11:37:55;15.47;;;9.67;;
5507;SDS011;2776;51.046;6.772;2024-01-11T11:40:31;14.40;;;9.50;;
5507;SDS011;2776;51.046;6.772;2024-01-11T11:43:00;16.60;;;9.17;;
5507;SDS011;2776;51.046;6.772;2024-01-11T11:45:28;19.07;;;9.23;;
5507;SDS011;2776;51.046;6.772;2024-01-11T11:47:55;15.43;;;9.90;;
5507;SDS011;2776;51.046;6.772;2024-01-11T11:50:23;20.83;;;11.40;;
5507;SDS011;2776;51.046;6.772;2024-01-11T11:52:53;17.63;;;10.63;;
5507;SDS011;2776;51.046;6.772;2024-01-11T11:55:20;14.23;;;9.10;;
5507;SDS011;2776;51.046;6.772;2024-01-11T11:57:48;19.10;;;9.93;;
5507;SDS011;2776;51.046;6.772;2024-01-11T12:00:16;24.97;;;11.23;;
5507;SDS011;2776;51.046;6.772;2024-01-11T12:02:43;16.70;;;9.13;;
5507;SDS011;2776;51.046;6.772;2024-01-11T12:05:10;21.07;;;9.97;;
5507;SDS011;2776;51.046;6.772;2024-01-11T12:07:38;18.63;;;10.60;;
5507;SDS011;2776;51.046;6.772;2024-01-11T12:10:05;23.00;;;10.87;;
5507;SDS011;2776;51.046;6.772;2024-01-11T12:12:33;21.00;;;10.70;;
5507;SDS011;2776;51.046;6.772;2024-01-11T12:15:00;17.97;;;10.70;;
5507;SDS011;2776;51.046;6.772;2024-01-11T12:17:28;17.07;;;9.73;;
5507;SDS011;2776;51.046;6.772;2024-01-11T12:19:55;28.00;;;10.73;;
5507;SDS011;2776;51.046;6.772;2024-01-11T12:22:22;20.40;;;10.80;;
5507;SDS011;2776;51.046;6.772;2024-01-11T12:24:51;24.37;;;10.33;;
5507;SDS011;2776;51.046;6.772;2024-01-11T12:27:18;24.90;;;10.27;;
5507;SDS011;2776;51.046;6.772;2024-01-11T12:29:45;15.43;;;9.63;;
5507;SDS011;2776;51.046;6.772;2024-01-11T12:32:13;26.20;;;11.27;;
5507;SDS011;2776;51.046;6.772;2024-01-11T12:34:42;18.93;;;10.37;;
5507;SDS011;2776;51.046;6.772;2024-01-11T12:37:10;21.43;;;10.00;;
5507;SDS011;2776;51.046;6.772;2024-01-11T12:39:37;18.00;;;10.33;;
5507;SDS011;2776;51.046;6.772;2024-01-11T12:42:06;19.80;;;10.87;;
5507;SDS011;2776;51.046;6.772;2024-01-11T12:44:34;16.30;;;9.13;;
5507;SDS011;2776;51.046;6.772;2024-01-11T12:47:03;20.57;;;10.33;;
5507;SDS011;2776;51.046;6.772;2024-01-11T12:49:30;21.33;;;8.63;;
5507;SDS011;2776;51.046;6.772;2024-01-11T12:51:57;18.43;;;9.47;;
5507;SDS011;2776;51.046;6.772;2024-01-11T12:54:24;13.67;;;9.20;;
5507;SDS011;2776;51.046;6.772;2024-01-11T12:56:51;25.30;;;10.10;;
5507;SDS011;2776;51.046;6.772;2024-01-11T12:59:19;16.43;;;8.73;;
5507;SDS011;2776;51.046;6.772;2024-01-11T13:01:50;15.23;;;9.20;;
5507;SDS011;2776;51.046;6.772;2024-01-11T13:04:18;18.43;;;9.23;;
5507;SDS011;2776;51.046;6.772;2024-01-11T13:06:45;15.97;;;9.40;;
5507;SDS011;2776;51.046;6.772;2024-01-11T13:09:12;16.50;;;9.43;;
5507;SDS011;2776;51.046;6.772;2024-01-11T13:11:39;16.10;;;9.57;;
5507;SDS011;2776;51.046;6.772;2024-01-11T13:14:06;15.77;;;9.47;;
5507;SDS011;2776;51.046;6.772;2024-01-11T13:16:40;17.80;;;10.40;;
5507;SDS011;2776;51.046;6.772;2024-01-11T13:19:07;20.93;;;10.30;;
5507;SDS011;2776;51.046;6.772;2024-01-11T13:21:35;13.73;;;8.97;;
5507;SDS011;2776;51.046;6.772;2024-01-11T13:24:03;17.40;;;9.37;;
5507;SDS011;2776;51.046;6.772;2024-01-11T13:26:30;18.07;;;10.63;;
5507;SDS011;2776;51.046;6.772;2024-01-11T13:28:57;21.67;;;9.87;;
5507;SDS011;2776;51.046;6.772;2024-01-11T13:31:23;15.87;;;9.13;;
5507;SDS011;2776;51.046;6.772;2024-01-11T13:33:51;15.43;;;7.97;;
5507;SDS011;2776;51.046;6.772;2024-01-11T13:36:20;20.63;;;9.30;;
5507;SDS011;2776;51.046;6.772;2024-01-11T13:38:46;15.07;;;8.13;;
5507;SDS011;2776;51.046;6.772;2024-01-11T13:41:14;19.43;;;9.50;;
5507;SDS011;2776;51.046;6.772;2024-01-11T13:43:41;15.70;;;8.73;;
5507;SDS011;2776;51.046;6.772;2024-01-11T13:46:07;14.33;;;9.03;;
5507;SDS011;2776;51.046;6.772;2024-01-11T13:48:34;21.63;;;8.70;;
5507;SDS011;2776;51.046;6.772;2024-01-11T13:51:02;18.47;;;9.90;;
5507;SDS011;2776;51.046;6.772;2024-01-11T13:53:29;20.70;;;9.03;;
5507;SDS011;2776;51.046;6.772;2024-01-11T13:55:56;14.33;;;8.13;;
5507;SDS011;2776;51.046;6.772;2024-01-11T13:58:23;19.53;;;9.20;;
5507;SDS011;2776;51.046;6.772;2024-01-11T14:00:50;15.73;;;7.53;;
5507;SDS011;2776;51.046;6.772;2024-01-11T14:03:17;17.77;;;9.00;;
5507;SDS011;2776;51.046;6.772;2024-01-11T14:05:43;22.27;;;9.40;;
5507;SDS011;2776;51.046;6.772;2024-01-11T14:08:11;15.27;;;8.03;;
5507;SDS011;2776;51.046;6.772;2024-01-11T14:10:38;14.77;;;8.60;;
5507;SDS011;2776;51.046;6.772;2024-01-11T14:13:05;17.37;;;8.77;;
5507;SDS011;2776;51.046;6.772;2024-01-11T14:15:31;15.60;;;8.40;;
5507;SDS011;2776;51.046;6.772;2024-01-11T14:17:58;15.53;;;8.00;;
5507;SDS011;2776;51.046;6.772;2024-01-11T14:20:25;19.20;;;10.53;;
5507;SDS011;2776;51.046;6.772;2024-01-11T14:22:52;19.50;;;8.63;;
5507;SDS011;2776;51.046;6.772;2024-01-11T14:25:20;11.30;;;7.27;;
5507;SDS011;2776;51.046;6.772;2024-01-11T14:27:49;19.20;;;9.27;;
5507;SDS011;2776;51.046;6.772;2024-01-11T14:30:17;18.13;;;9.40;;
5507;SDS011;2776;51.046;6.772;2024-01-11T14:32:46;15.33;;;8.03;;
5507;SDS011;2776;51.046;6.772;2024-01-11T14:35:13;14.17;;;8.27;;
5507;SDS011;2776;51.046;6.772;2024-01-11T14:37:42;19.43;;;9.07;;
5507;SDS011;2776;51.046;6.772;2024-01-11T14:40:10;17.90;;;7.67;;
5507;SDS011;2776;51.046;6.772;2024-01-11T14:42:38;14.80;;;8.03;;
5507;SDS011;2776;51.046;6.772;2024-01-11T14:45:06;13.83;;;7.37;;
5507;SDS011;2776;51.046;6.772;2024-01-11T14:47:33;11.83;;;8.47;;
5507;SDS011;2776;51.046;6.772;2024-01-11T14:50:00;15.83;;;8.07;;
5507;SDS011;2776;51.046;6.772;2024-01-11T14:52:28;12.90;;;7.13;;
5507;SDS011;2776;51.046;6.772;2024-01-11T14:54:55;14.90;;;7.67;;
5507;SDS011;2776;51.046;6.772;2024-01-11T14:57:22;13.20;;;6.80;;
5507;SDS011;2776;51.046;6.772;2024-01-11T14:59:50;17.17;;;8.53;;
5507;SDS011;2776;51.046;6.772;2024-01-11T15:02:17;20.50;;;9.63;;
5507;SDS011;2776;51.046;6.772;2024-01-11T15:04:44;15.27;;;9.07;;
5507;SDS011;2776;51.046;6.772;2024-01-11T15:07:11;28.37;;;11.27;;
5507;SDS011;2776;51.046;6.772;2024-01-11T15:09:38;13.23;;;7.97;;